sensor_id;sensor_type;location;lat;lon;timestamp;pressure;altitude;pressure_sealevel;temperature;humidity
79129;BME280;68529;43.286;23.360;2023-04-25T00:01:03;98258.63;;;15.72;55.88
79129;BME280;68529;43.286;23.360;2023-04-25T00:03:31;98247.22;;;15.71;54.96
79129;BME280;68529;43.286;23.360;2023-04-25T00:05:57;98252.16;;;15.76;55.07
79129;BME280;68529;43.286;23.360;2023-04-25T00:08:24;98255.66;;;15.77;55.41
79129;BME280;68529;43.286;23.360;2023-04-25T00:10:50;98258.97;;;15.67;54.90
79129;BME280;68529;43.286;23.360;2023-04-25T00:13:15;98254.72;;;15.65;54.95
79129;BME280;68529;43.286;23.360;2023-04-25T00:15:42;98242.22;;;15.67;55.14
79129;BME280;68529;43.286;23.360;2023-04-25T00:18:08;98237.78;;;15.67;54.83
79129;BME280;68529;43.286;23.360;2023-04-25T00:20:35;98244.88;;;15.67;55.07
79129;BME280;68529;43.286;23.360;2023-04-25T00:23:00;98245.84;;;15.66;54.89
79129;BME280;68529;43.286;23.360;2023-04-25T00:25:26;98244.78;;;15.56;55.09
79129;BME280;68529;43.286;23.360;2023-04-25T00:27:51;98244.78;;;15.56;55.11
79129;BME280;68529;43.286;23.360;2023-04-25T00:30:16;98238.84;;;15.52;55.32
79129;BME280;68529;43.286;23.360;2023-04-25T00:32:42;98235.25;;;15.53;55.12
79129;BME280;68529;43.286;23.360;2023-04-25T00:35:09;98239.69;;;15.53;54.90
79129;BME280;68529;43.286;23.360;2023-04-25T00:37:34;98237.34;;;15.61;54.61
79129;BME280;68529;43.286;23.360;2023-04-25T00:40:00;98237.56;;;15.58;54.25
79129;BME280;68529;43.286;23.360;2023-04-25T00:42:26;98227.84;;;15.58;54.03
79129;BME280;68529;43.286;23.360;2023-04-25T00:44:52;98226.34;;;15.67;53.97
79129;BME280;68529;43.286;23.360;2023-04-25T00:47:18;98241.28;;;15.68;54.59
79129;BME280;68529;43.286;23.360;2023-04-25T00:49:44;98235.47;;;15.63;53.60
79129;BME280;68529;43.286;23.360;2023-04-25T00:52:10;98234.50;;;15.64;53.94
79129;BME280;68529;43.286;23.360;2023-04-25T00:54:35;98233.25;;;15.57;53.99
79129;BME280;68529;43.286;23.360;2023-04-25T00:57:02;98225.63;;;15.52;53.41
79129;BME280;68529;43.286;23.360;2023-04-25T00:59:28;98224.56;;;15.55;53.57
79129;BME280;68529;43.286;23.360;2023-04-25T01:01:55;98231.13;;;15.62;53.97
79129;BME280;68529;43.286;23.360;2023-04-25T01:04:20;98224.53;;;15.67;53.85
79129;BME280;68529;43.286;23.360;2023-04-25T01:06:46;98227.06;;;15.69;53.58
79129;BME280;68529;43.286;23.360;2023-04-25T01:09:12;98217.22;;;15.71;54.26
79129;BME280;68529;43.286;23.360;2023-04-25T01:11:38;98222.03;;;15.66;54.38
79129;BME280;68529;43.286;23.360;2023-04-25T01:14:05;98211.53;;;15.64;54.67
79129;BME280;68529;43.286;23.360;2023-04-25T01:16:32;98204.78;;;15.60;54.24
79129;BME280;68529;43.286;23.360;2023-04-25T01:18:59;98208.16;;;15.50;54.20
79129;BME280;68529;43.286;23.360;2023-04-25T01:21:24;98206.28;;;15.52;53.32
79129;BME280;68529;43.286;23.360;2023-04-25T01:23:53;98206.44;;;15.61;52.60
79129;BME280;68529;43.286;23.360;2023-04-25T01:26:19;98203.56;;;15.64;52.19
79129;BME280;68529;43.286;23.360;2023-04-25T01:28:47;98211.72;;;15.74;52.43
79129;BME280;68529;43.286;23.360;2023-04-25T01:31:14;98212.97;;;15.81;52.25
79129;BME280;68529;43.286;23.360;2023-04-25T01:33:40;98212.88;;;15.83;52.26
79129;BME280;68529;43.286;23.360;2023-04-25T01:36:05;98206.72;;;15.82;52.26
79129;BME280;68529;43.286;23.360;2023-04-25T01:38:31;98210.31;;;15.81;52.44
79129;BME280;68529;43.286;23.360;2023-04-25T01:40:57;98204.38;;;15.78;52.21
79129;BME280;68529;43.286;23.360;2023-04-25T01:43:23;98205.78;;;15.70;52.54
79129;BME280;68529;43.286;23.360;2023-04-25T01:45:49;98210.56;;;15.65;52.70
79129;BME280;68529;43.286;23.360;2023-04-25T01:48:15;98203.50;;;15.66;53.06
79129;BME280;68529;43.286;23.360;2023-04-25T01:50:40;98198.41;;;15.63;53.13
79129;BME280;68529;43.286;23.360;2023-04-25T01:53:07;98199.56;;;15.59;53.53
79129;BME280;68529;43.286;23.360;2023-04-25T01:55:34;98197.78;;;15.59;53.22
79129;BME280;68529;43.286;23.360;2023-04-25T01:58:01;98191.84;;;15.56;53.25
79129;BME280;68529;43.286;23.360;2023-04-25T02:00:27;98200.34;;;15.48;53.46
79129;BME280;68529;43.286;23.360;2023-04-25T02:02:52;98187.28;;;15.58;52.35
79129;BME280;68529;43.286;23.360;2023-04-25T02:05:19;98196.97;;;15.46;52.55
79129;BME280;68529;43.286;23.360;2023-04-25T02:07:46;98185.50;;;15.46;52.95
79129;BME280;68529;43.286;23.360;2023-04-25T02:10:12;98183.16;;;15.41;53.20
79129;BME280;68529;43.286;23.360;2023-04-25T02:12:37;98180.50;;;15.41;52.97
79129;BME280;68529;43.286;23.360;2023-04-25T02:15:03;98173.03;;;15.35;52.74
79129;BME280;68529;43.286;23.360;2023-04-25T02:17:28;98187.06;;;15.36;52.29
79129;BME280;68529;43.286;23.360;2023-04-25T02:19:54;98176.91;;;15.42;52.31
79129;BME280;68529;43.286;23.360;2023-04-25T02:22:19;98176.63;;;15.47;52.45
79129;BME280;68529;43.286;23.360;2023-04-25T02:24:46;98180.19;;;15.46;52.95
79129;BME280;68529;43.286;23.360;2023-04-25T02:27:11;98169.84;;;15.43;52.68
79129;BME280;68529;43.286;23.360;2023-04-25T02:29:37;98164.97;;;15.37;52.81
79129;BME280;68529;43.286;23.360;2023-04-25T02:32:03;98168.03;;;15.31;52.76
79129;BME280;68529;43.286;23.360;2023-04-25T02:34:29;98163.72;;;15.30;51.99
79129;BME280;68529;43.286;23.360;2023-04-25T02:36:54;98160.44;;;15.26;52.70
79129;BME280;68529;43.286;23.360;2023-04-25T02:39:20;98171.03;;;15.26;52.44
79129;BME280;68529;43.286;23.360;2023-04-25T02:41:47;98170.16;;;15.26;52.37
79129;BME280;68529;43.286;23.360;2023-04-25T02:44:12;98173.53;;;15.28;52.38
79129;BME280;68529;43.286;23.360;2023-04-25T02:46:38;98182.25;;;15.30;52.25
79129;BME280;68529;43.286;23.360;2023-04-25T02:49:03;98172.81;;;15.26;52.55
79129;BME280;68529;43.286;23.360;2023-04-25T02:51:29;98183.91;;;15.31;51.86
79129;BME280;68529;43.286;23.360;2023-04-25T02:53:55;98179.59;;;15.30;51.97
79129;BME280;68529;43.286;23.360;2023-04-25T02:56:20;98174.19;;;15.31;51.79
79129;BME280;68529;43.286;23.360;2023-04-25T02:58:46;98179.72;;;15.15;52.58
79129;BME280;68529;43.286;23.360;2023-04-25T03:01:11;98172.50;;;15.18;52.24
79129;BME280;68529;43.286;23.360;2023-04-25T03:03:36;98174.84;;;15.09;52.25
79129;BME280;68529;43.286;23.360;2023-04-25T03:06:02;98177.81;;;15.18;51.88
79129;BME280;68529;43.286;23.360;2023-04-25T03:08:27;98173.16;;;15.21;51.97
79129;BME280;68529;43.286;23.360;2023-04-25T03:10:57;98170.59;;;15.20;51.86
79129;BME280;68529;43.286;23.360;2023-04-25T03:13:23;98181.91;;;15.22;51.59
79129;BME280;68529;43.286;23.360;2023-04-25T03:15:49;98178.31;;;15.23;51.81
79129;BME280;68529;43.286;23.360;2023-04-25T03:18:14;98175.34;;;15.27;51.76
79129;BME280;68529;43.286;23.360;2023-04-25T03:20:40;98175.25;;;15.29;51.18
79129;BME280;68529;43.286;23.360;2023-04-25T03:23:07;98173.66;;;15.26;51.62
79129;BME280;68529;43.286;23.360;2023-04-25T03:25:32;98167.31;;;15.29;51.63
79129;BME280;68529;43.286;23.360;2023-04-25T03:27:57;98175.59;;;15.24;51.34
79129;BME280;68529;43.286;23.360;2023-04-25T03:30:23;98176.75;;;15.20;52.04
79129;BME280;68529;43.286;23.360;2023-04-25T03:32:48;98175.38;;;15.14;51.49
79129;BME280;68529;43.286;23.360;2023-04-25T03:35:14;98183.81;;;15.20;51.50
79129;BME280;68529;43.286;23.360;2023-04-25T03:37:39;98184.03;;;15.16;51.84
79129;BME280;68529;43.286;23.360;2023-04-25T03:40:06;98192.28;;;15.25;51.56
79129;BME280;68529;43.286;23.360;2023-04-25T03:42:31;98195.69;;;15.27;51.48
79129;BME280;68529;43.286;23.360;2023-04-25T03:44:57;98202.00;;;15.37;51.68
79129;BME280;68529;43.286;23.360;2023-04-25T03:47:22;98197.97;;;15.44;52.55
79129;BME280;68529;43.286;23.360;2023-04-25T03:49:48;98198.72;;;15.46;52.50
79129;BME280;68529;43.286;23.360;2023-04-25T03:52:14;98194.19;;;15.48;53.25
79129;BME280;68529;43.286;23.360;2023-04-25T03:54:40;98197.47;;;15.51;53.41
79129;BME280;68529;43.286;23.360;2023-04-25T03:57:05;98204.78;;;15.48;53.68
79129;BME280;68529;43.286;23.360;2023-04-25T03:59:30;98198.81;;;15.44;54.13
79129;BME280;68529;43.286;23.360;2023-04-25T04:01:56;98197.97;;;15.44;54.45
79129;BME280;68529;43.286;23.360;2023-04-25T04:04:22;98200.53;;;15.45;54.80
79129;BME280;68529;43.286;23.360;2023-04-25T04:06:47;98200.44;;;15.47;54.84
79129;BME280;68529;43.286;23.360;2023-04-25T04:09:12;98203.06;;;15.47;55.05
79129;BME280;68529;43.286;23.360;2023-04-25T04:11:38;98210.06;;;15.48;55.18
79129;BME280;68529;43.286;23.360;2023-04-25T04:14:07;98210.59;;;15.53;55.22
79129;BME280;68529;43.286;23.360;2023-04-25T04:16:33;98209.72;;;15.52;55.05
79129;BME280;68529;43.286;23.360;2023-04-25T04:18:58;98210.38;;;15.56;55.50
79129;BME280;68529;43.286;23.360;2023-04-25T04:21:24;98209.00;;;15.63;55.10
79129;BME280;68529;43.286;23.360;2023-04-25T04:23:49;98203.69;;;15.63;55.24
79129;BME280;68529;43.286;23.360;2023-04-25T04:26:15;98200.09;;;15.64;55.08
79129;BME280;68529;43.286;23.360;2023-04-25T04:28:42;98193.13;;;15.63;55.72
79129;BME280;68529;43.286;23.360;2023-04-25T04:31:09;98204.44;;;15.65;55.83
79129;BME280;68529;43.286;23.360;2023-04-25T04:33:35;98202.06;;;15.73;55.39
79129;BME280;68529;43.286;23.360;2023-04-25T04:36:00;98207.78;;;15.80;55.80
79129;BME280;68529;43.286;23.360;2023-04-25T04:38:28;98213.59;;;15.85;55.61
79129;BME280;68529;43.286;23.360;2023-04-25T04:40:54;98211.22;;;15.93;55.48
79129;BME280;68529;43.286;23.360;2023-04-25T04:43:19;98208.22;;;16.10;55.17
79129;BME280;68529;43.286;23.360;2023-04-25T04:45:44;98205.13;;;16.16;55.44
79129;BME280;68529;43.286;23.360;2023-04-25T04:48:10;98200.09;;;16.24;55.43
79129;BME280;68529;43.286;23.360;2023-04-25T04:50:36;98200.69;;;16.27;55.27
79129;BME280;68529;43.286;23.360;2023-04-25T04:53:02;98203.88;;;16.33;55.19
79129;BME280;68529;43.286;23.360;2023-04-25T04:55:27;98209.53;;;16.39;55.35
79129;BME280;68529;43.286;23.360;2023-04-25T04:57:53;98213.63;;;16.32;55.67
79129;BME280;68529;43.286;23.360;2023-04-25T05:00:19;98223.19;;;16.22;55.96
79129;BME280;68529;43.286;23.360;2023-04-25T05:02:45;98228.16;;;16.26;56.77
79129;BME280;68529;43.286;23.360;2023-04-25T05:05:11;98234.25;;;16.16;57.85
79129;BME280;68529;43.286;23.360;2023-04-25T05:07:36;98236.78;;;15.94;58.85
79129;BME280;68529;43.286;23.360;2023-04-25T05:10:02;98244.53;;;15.84;59.34
79129;BME280;68529;43.286;23.360;2023-04-25T05:12:28;98242.31;;;15.78;59.41
79129;BME280;68529;43.286;23.360;2023-04-25T05:14:53;98244.53;;;15.84;59.51
79129;BME280;68529;43.286;23.360;2023-04-25T05:17:19;98241.28;;;15.68;60.05
79129;BME280;68529;43.286;23.360;2023-04-25T05:19:44;98243.81;;;15.32;61.42
79129;BME280;68529;43.286;23.360;2023-04-25T05:22:10;98245.63;;;15.19;62.24
79129;BME280;68529;43.286;23.360;2023-04-25T05:24:35;98247.94;;;15.10;62.83
79129;BME280;68529;43.286;23.360;2023-04-25T05:27:01;98251.31;;;14.87;64.06
79129;BME280;68529;43.286;23.360;2023-04-25T05:29:27;98253.09;;;14.35;66.61
79129;BME280;68529;43.286;23.360;2023-04-25T05:31:52;98254.28;;;14.29;66.49
79129;BME280;68529;43.286;23.360;2023-04-25T05:34:18;98250.09;;;14.66;65.31
79129;BME280;68529;43.286;23.360;2023-04-25T05:36:43;98248.78;;;15.11;64.07
79129;BME280;68529;43.286;23.360;2023-04-25T05:39:09;98248.06;;;15.47;63.29
79129;BME280;68529;43.286;23.360;2023-04-25T05:41:34;98248.69;;;15.63;63.02
79129;BME280;68529;43.286;23.360;2023-04-25T05:44:00;98249.88;;;15.46;62.99
79129;BME280;68529;43.286;23.360;2023-04-25T05:46:25;98259.00;;;15.55;63.44
79129;BME280;68529;43.286;23.360;2023-04-25T05:48:51;98256.44;;;15.66;63.65
79129;BME280;68529;43.286;23.360;2023-04-25T05:51:16;98253.03;;;15.77;63.28
79129;BME280;68529;43.286;23.360;2023-04-25T05:53:43;98244.94;;;15.78;63.10
79129;BME280;68529;43.286;23.360;2023-04-25T05:56:09;98255.31;;;15.81;62.77
79129;BME280;68529;43.286;23.360;2023-04-25T05:58:34;98249.38;;;15.90;63.17
79129;BME280;68529;43.286;23.360;2023-04-25T06:01:00;98249.22;;;15.68;63.17
79129;BME280;68529;43.286;23.360;2023-04-25T06:03:25;98240.00;;;15.61;63.23
79129;BME280;68529;43.286;23.360;2023-04-25T06:05:51;98247.91;;;15.86;62.88
79129;BME280;68529;43.286;23.360;2023-04-25T06:08:16;98238.19;;;16.10;63.42
79129;BME280;68529;43.286;23.360;2023-04-25T06:10:41;98240.38;;;16.16;62.87
79129;BME280;68529;43.286;23.360;2023-04-25T06:13:07;98240.03;;;15.97;62.99
79129;BME280;68529;43.286;23.360;2023-04-25T06:15:32;98244.38;;;15.98;63.08
79129;BME280;68529;43.286;23.360;2023-04-25T06:17:58;98245.81;;;16.15;63.00
79129;BME280;68529;43.286;23.360;2023-04-25T06:20:23;98246.09;;;16.23;63.47
79129;BME280;68529;43.286;23.360;2023-04-25T06:22:50;98238.75;;;16.26;63.50
79129;BME280;68529;43.286;23.360;2023-04-25T06:25:16;98252.75;;;16.28;63.17
79129;BME280;68529;43.286;23.360;2023-04-25T06:27:42;98252.75;;;16.28;63.33
79129;BME280;68529;43.286;23.360;2023-04-25T06:30:08;98249.38;;;16.26;63.46
79129;BME280;68529;43.286;23.360;2023-04-25T06:32:33;98254.66;;;16.26;62.93
79129;BME280;68529;43.286;23.360;2023-04-25T06:35:00;98252.88;;;16.27;63.15
79129;BME280;68529;43.286;23.360;2023-04-25T06:37:25;98250.94;;;16.29;63.30
79129;BME280;68529;43.286;23.360;2023-04-25T06:39:50;98247.72;;;16.37;63.03
79129;BME280;68529;43.286;23.360;2023-04-25T06:42:16;98250.56;;;16.46;62.85
79129;BME280;68529;43.286;23.360;2023-04-25T06:44:41;98244.47;;;16.57;62.68
79129;BME280;68529;43.286;23.360;2023-04-25T06:47:07;98240.91;;;16.69;63.04
79129;BME280;68529;43.286;23.360;2023-04-25T06:49:32;98246.84;;;16.83;63.06
79129;BME280;68529;43.286;23.360;2023-04-25T06:51:57;98252.34;;;17.04;62.49
79129;BME280;68529;43.286;23.360;2023-04-25T06:54:23;98241.28;;;17.21;62.30
79129;BME280;68529;43.286;23.360;2023-04-25T06:56:50;98235.75;;;17.35;62.13
79129;BME280;68529;43.286;23.360;2023-04-25T06:59:15;98233.94;;;17.25;62.52
79129;BME280;68529;43.286;23.360;2023-04-25T07:01:41;98243.72;;;17.35;61.75
79129;BME280;68529;43.286;23.360;2023-04-25T07:04:06;98240.94;;;17.48;61.65
79129;BME280;68529;43.286;23.360;2023-04-25T07:06:32;98245.72;;;17.67;61.43
79129;BME280;68529;43.286;23.360;2023-04-25T07:08:57;98242.53;;;17.84;61.88
79129;BME280;68529;43.286;23.360;2023-04-25T07:11:23;98240.59;;;17.97;61.33
79129;BME280;68529;43.286;23.360;2023-04-25T07:13:48;98246.38;;;18.02;61.16
79129;BME280;68529;43.286;23.360;2023-04-25T07:16:13;98244.69;;;18.01;60.80
79129;BME280;68529;43.286;23.360;2023-04-25T07:18:39;98249.41;;;18.09;60.42
79129;BME280;68529;43.286;23.360;2023-04-25T07:21:04;98248.06;;;18.14;60.24
79129;BME280;68529;43.286;23.360;2023-04-25T07:23:30;98240.69;;;18.07;59.50
79129;BME280;68529;43.286;23.360;2023-04-25T07:25:55;98241.81;;;17.93;59.87
79129;BME280;68529;43.286;23.360;2023-04-25T07:28:21;98240.88;;;17.72;60.15
79129;BME280;68529;43.286;23.360;2023-04-25T07:30:46;98238.22;;;17.61;60.47
79129;BME280;68529;43.286;23.360;2023-04-25T07:33:12;98241.84;;;17.60;60.96
79129;BME280;68529;43.286;23.360;2023-04-25T07:35:37;98233.38;;;17.55;60.45
79129;BME280;68529;43.286;23.360;2023-04-25T07:38:03;98242.91;;;17.57;61.15
79129;BME280;68529;43.286;23.360;2023-04-25T07:40:28;98236.84;;;17.44;62.01
79129;BME280;68529;43.286;23.360;2023-04-25T07:42:54;98230.94;;;17.40;61.88
79129;BME280;68529;43.286;23.360;2023-04-25T07:45:19;98240.72;;;17.51;61.37
79129;BME280;68529;43.286;23.360;2023-04-25T07:47:45;98230.69;;;17.32;61.55
79129;BME280;68529;43.286;23.360;2023-04-25T07:50:10;98238.91;;;17.52;61.54
79129;BME280;68529;43.286;23.360;2023-04-25T07:52:36;98240.50;;;17.76;61.10
79129;BME280;68529;43.286;23.360;2023-04-25T07:55:01;98233.50;;;17.75;61.01
79129;BME280;68529;43.286;23.360;2023-04-25T07:57:27;98237.44;;;18.14;59.29
79129;BME280;68529;43.286;23.360;2023-04-25T07:59:52;98218.38;;;18.52;59.46
79129;BME280;68529;43.286;23.360;2023-04-25T08:02:17;98239.84;;;18.60;59.18
79129;BME280;68529;43.286;23.360;2023-04-25T08:04:43;98237.59;;;18.55;58.18
79129;BME280;68529;43.286;23.360;2023-04-25T08:07:08;98235.72;;;18.67;57.97
79129;BME280;68529;43.286;23.360;2023-04-25T08:09:34;98237.53;;;18.87;57.55
79129;BME280;68529;43.286;23.360;2023-04-25T08:12:01;98243.34;;;18.92;57.39
79129;BME280;68529;43.286;23.360;2023-04-25T08:14:28;98245.06;;;18.82;56.91
79129;BME280;68529;43.286;23.360;2023-04-25T08:16:56;98244.56;;;18.68;56.16
79129;BME280;68529;43.286;23.360;2023-04-25T08:19:21;98252.84;;;18.42;55.78
79129;BME280;68529;43.286;23.360;2023-04-25T08:21:47;98255.00;;;18.37;55.84
79129;BME280;68529;43.286;23.360;2023-04-25T08:24:12;98252.88;;;18.31;56.13
79129;BME280;68529;43.286;23.360;2023-04-25T08:26:38;98250.69;;;18.25;56.01
79129;BME280;68529;43.286;23.360;2023-04-25T08:29:04;98252.25;;;18.28;55.93
79129;BME280;68529;43.286;23.360;2023-04-25T08:31:30;98250.69;;;18.25;55.75
79129;BME280;68529;43.286;23.360;2023-04-25T08:33:56;98254.91;;;18.28;55.38
79129;BME280;68529;43.286;23.360;2023-04-25T08:36:21;98260.47;;;18.36;55.51
79129;BME280;68529;43.286;23.360;2023-04-25T08:38:47;98264.44;;;18.41;56.28
79129;BME280;68529;43.286;23.360;2023-04-25T08:41:13;98265.38;;;18.40;56.37
79129;BME280;68529;43.286;23.360;2023-04-25T08:43:42;98265.13;;;18.43;56.16
79129;BME280;68529;43.286;23.360;2023-04-25T08:46:08;98271.56;;;18.52;56.16
79129;BME280;68529;43.286;23.360;2023-04-25T08:48:34;98267.53;;;18.46;55.18
79129;BME280;68529;43.286;23.360;2023-04-25T08:51:01;98258.84;;;19.08;54.93
79129;BME280;68529;43.286;23.360;2023-04-25T08:53:30;98256.41;;;19.67;55.05
79129;BME280;68529;43.286;23.360;2023-04-25T08:55:57;98259.28;;;19.54;55.04
79129;BME280;68529;43.286;23.360;2023-04-25T08:58:23;98262.88;;;19.44;54.76
79129;BME280;68529;43.286;23.360;2023-04-25T09:00:50;98266.69;;;19.30;54.04
79129;BME280;68529;43.286;23.360;2023-04-25T09:03:17;98260.22;;;19.23;53.77
79129;BME280;68529;43.286;23.360;2023-04-25T09:05:42;98261.84;;;19.14;53.61
79129;BME280;68529;43.286;23.360;2023-04-25T09:08:08;98260.34;;;19.22;53.44
79129;BME280;68529;43.286;23.360;2023-04-25T09:10:34;98251.31;;;19.13;53.76
79129;BME280;68529;43.286;23.360;2023-04-25T09:13:07;98252.69;;;19.07;52.64
79129;BME280;68529;43.286;23.360;2023-04-25T09:18:29;98256.03;;;20.11;52.03
79129;BME280;68529;43.286;23.360;2023-04-25T09:20:56;98248.63;;;20.24;51.88
79129;BME280;68529;43.286;23.360;2023-04-25T09:23:23;98243.06;;;19.97;52.13
79129;BME280;68529;43.286;23.360;2023-04-25T09:25:51;98241.72;;;20.22;53.10
79129;BME280;68529;43.286;23.360;2023-04-25T09:28:25;98242.84;;;20.19;52.54
79129;BME280;68529;43.286;23.360;2023-04-25T09:30:55;98242.91;;;20.29;52.82
79129;BME280;68529;43.286;23.360;2023-04-25T09:33:29;98239.13;;;20.31;51.83
79129;BME280;68529;43.286;23.360;2023-04-25T09:36:02;98230.16;;;20.42;51.10
79129;BME280;68529;43.286;23.360;2023-04-25T09:38:30;98231.13;;;20.41;51.21
79129;BME280;68529;43.286;23.360;2023-04-25T09:40:55;98235.81;;;20.18;51.33
79129;BME280;68529;43.286;23.360;2023-04-25T09:43:23;98226.56;;;20.22;51.21
79129;BME280;68529;43.286;23.360;2023-04-25T09:45:49;98223.97;;;20.42;51.68
79129;BME280;68529;43.286;23.360;2023-04-25T09:48:21;98224.25;;;20.48;52.03
79129;BME280;68529;43.286;23.360;2023-04-25T09:51:10;98228.16;;;20.25;51.78
79129;BME280;68529;43.286;23.360;2023-04-25T09:53:37;98230.06;;;20.13;51.22
79129;BME280;68529;43.286;23.360;2023-04-25T09:56:04;98228.94;;;20.16;51.48
79129;BME280;68529;43.286;23.360;2023-04-25T09:58:32;98223.50;;;20.27;50.06
79129;BME280;68529;43.286;23.360;2023-04-25T10:01:07;98215.84;;;20.43;51.17
79129;BME280;68529;43.286;23.360;2023-04-25T10:03:34;98220.03;;;20.55;49.90
79129;BME280;68529;43.286;23.360;2023-04-25T10:06:01;98219.91;;;20.47;49.76
79129;BME280;68529;43.286;23.360;2023-04-25T10:08:33;98216.25;;;20.67;49.11
79129;BME280;68529;43.286;23.360;2023-04-25T10:11:01;98206.03;;;20.63;49.94
79129;BME280;68529;43.286;23.360;2023-04-25T10:13:29;98206.44;;;20.68;49.11
79129;BME280;68529;43.286;23.360;2023-04-25T10:15:57;98207.09;;;21.08;47.93
79129;BME280;68529;43.286;23.360;2023-04-25T10:18:25;98187.09;;;21.22;48.65
79129;BME280;68529;43.286;23.360;2023-04-25T10:20:50;98188.97;;;21.85;46.57
79129;BME280;68529;43.286;23.360;2023-04-25T10:23:16;98190.97;;;22.11;45.87
79129;BME280;68529;43.286;23.360;2023-04-25T10:25:43;98174.41;;;22.42;46.28
79129;BME280;68529;43.286;23.360;2023-04-25T10:28:09;98180.34;;;22.64;45.47
79129;BME280;68529;43.286;23.360;2023-04-25T10:30:34;98176.44;;;23.01;44.89
79129;BME280;68529;43.286;23.360;2023-04-25T10:33:00;98173.66;;;22.85;45.14
79129;BME280;68529;43.286;23.360;2023-04-25T10:35:26;98175.94;;;22.45;45.57
79129;BME280;68529;43.286;23.360;2023-04-25T10:40:33;98174.53;;;22.23;46.80
79129;BME280;68529;43.286;23.360;2023-04-25T10:45:57;98177.88;;;21.90;44.44
79129;BME280;68529;43.286;23.360;2023-04-25T10:48:30;98173.91;;;21.94;45.35
79129;BME280;68529;43.286;23.360;2023-04-25T10:51:09;98162.69;;;22.08;45.53
79129;BME280;68529;43.286;23.360;2023-04-25T10:53:35;98154.97;;;22.05;44.26
79129;BME280;68529;43.286;23.360;2023-04-25T10:56:00;98157.50;;;21.52;42.66
79129;BME280;68529;43.286;23.360;2023-04-25T10:58:34;98181.19;;;21.28;45.17
79129;BME280;68529;43.286;23.360;2023-04-25T11:01:01;98216.66;;;21.11;46.91
79129;BME280;68529;43.286;23.360;2023-04-25T11:03:26;98237.16;;;20.53;45.38
79129;BME280;68529;43.286;23.360;2023-04-25T11:05:52;98239.97;;;19.92;47.35
79129;BME280;68529;43.286;23.360;2023-04-25T11:08:30;98250.63;;;19.32;49.95
79129;BME280;68529;43.286;23.360;2023-04-25T11:11:02;98244.50;;;18.79;52.23
79129;BME280;68529;43.286;23.360;2023-04-25T11:13:30;98245.22;;;18.38;53.34
79129;BME280;68529;43.286;23.360;2023-04-25T11:15:56;98252.78;;;18.11;53.93
79129;BME280;68529;43.286;23.360;2023-04-25T11:18:21;98254.25;;;17.70;53.68
79129;BME280;68529;43.286;23.360;2023-04-25T11:20:47;98268.09;;;17.40;55.72
79129;BME280;68529;43.286;23.360;2023-04-25T11:23:13;98268.44;;;17.25;56.03
79129;BME280;68529;43.286;23.360;2023-04-25T11:25:40;98285.53;;;16.75;56.85
79129;BME280;68529;43.286;23.360;2023-04-25T11:28:06;98301.63;;;16.61;57.61
79129;BME280;68529;43.286;23.360;2023-04-25T11:30:31;98295.13;;;16.65;58.77
79129;BME280;68529;43.286;23.360;2023-04-25T11:32:56;98302.81;;;16.57;59.99
79129;BME280;68529;43.286;23.360;2023-04-25T11:35:22;98305.78;;;16.52;60.11
79129;BME280;68529;43.286;23.360;2023-04-25T11:37:48;98299.22;;;16.58;60.02
79129;BME280;68529;43.286;23.360;2023-04-25T11:40:15;98298.50;;;16.67;58.83
79129;BME280;68529;43.286;23.360;2023-04-25T11:42:45;98310.31;;;16.63;60.98
79129;BME280;68529;43.286;23.360;2023-04-25T11:45:11;98309.44;;;16.39;60.39
79129;BME280;68529;43.286;23.360;2023-04-25T11:47:37;98308.81;;;16.35;59.48
79129;BME280;68529;43.286;23.360;2023-04-25T11:50:04;98297.78;;;16.28;58.90
79129;BME280;68529;43.286;23.360;2023-04-25T11:52:38;98287.13;;;16.77;58.70
79129;BME280;68529;43.286;23.360;2023-04-25T11:55:05;98284.50;;;17.45;58.65
79129;BME280;68529;43.286;23.360;2023-04-25T11:57:32;98276.81;;;17.54;57.59
79129;BME280;68529;43.286;23.360;2023-04-25T12:00:06;98282.13;;;17.87;58.08
79129;BME280;68529;43.286;23.360;2023-04-25T12:02:35;98292.16;;;18.06;56.29
79129;BME280;68529;43.286;23.360;2023-04-25T12:05:00;98287.91;;;18.25;58.25
79129;BME280;68529;43.286;23.360;2023-04-25T12:07:29;98287.25;;;18.44;57.64
79129;BME280;68529;43.286;23.360;2023-04-25T12:09:55;98284.47;;;18.56;57.56
79129;BME280;68529;43.286;23.360;2023-04-25T12:12:21;98282.75;;;18.67;57.35
79129;BME280;68529;43.286;23.360;2023-04-25T12:14:47;98278.81;;;18.82;56.49
79129;BME280;68529;43.286;23.360;2023-04-25T12:17:16;98280.66;;;18.81;57.76
79129;BME280;68529;43.286;23.360;2023-04-25T12:19:42;98266.34;;;18.82;57.71
79129;BME280;68529;43.286;23.360;2023-04-25T12:22:23;98271.09;;;18.79;57.95
79129;BME280;68529;43.286;23.360;2023-04-25T12:24:49;98280.31;;;18.75;58.54
79129;BME280;68529;43.286;23.360;2023-04-25T12:27:16;98269.41;;;18.78;58.10
79129;BME280;68529;43.286;23.360;2023-04-25T12:29:50;98263.31;;;18.87;58.67
79129;BME280;68529;43.286;23.360;2023-04-25T12:32:16;98265.94;;;18.98;57.81
79129;BME280;68529;43.286;23.360;2023-04-25T12:34:42;98265.97;;;19.07;58.36
79129;BME280;68529;43.286;23.360;2023-04-25T12:37:08;98249.16;;;19.07;58.19
79129;BME280;68529;43.286;23.360;2023-04-25T12:39:34;98234.50;;;18.92;57.32
79129;BME280;68529;43.286;23.360;2023-04-25T12:41:59;98231.41;;;18.87;57.67
79129;BME280;68529;43.286;23.360;2023-04-25T12:44:25;98230.09;;;18.81;57.62
79129;BME280;68529;43.286;23.360;2023-04-25T12:46:50;98239.28;;;18.77;57.40
79129;BME280;68529;43.286;23.360;2023-04-25T12:49:16;98257.16;;;18.86;57.75
79129;BME280;68529;43.286;23.360;2023-04-25T12:51:41;98260.00;;;18.94;58.62
79129;BME280;68529;43.286;23.360;2023-04-25T12:54:07;98250.78;;;18.98;58.10